createdAt,value
2023-03-22T00:00:01.870Z,8.06
2023-03-22T00:02:33.342Z,8.06
2023-03-22T00:05:00.541Z,8.05
2023-03-22T00:07:28.160Z,7.99
2023-03-22T00:09:55.507Z,8.03
2023-03-22T00:12:22.430Z,7.98
2023-03-22T00:14:49.679Z,7.97
2023-03-22T00:17:16.774Z,8.03
2023-03-22T00:19:45.242Z,8.03
2023-03-22T00:22:14.878Z,7.99
2023-03-22T00:24:41.910Z,8.03
2023-03-22T00:27:08.924Z,8.03
2023-03-22T00:29:36.049Z,8.03
2023-03-22T00:32:04.434Z,8.02
2023-03-22T00:34:32.910Z,8.05
2023-03-22T00:37:00.327Z,8.02
2023-03-22T00:39:27.393Z,8.00
2023-03-22T00:41:54.394Z,7.99
2023-03-22T00:44:21.498Z,7.99
2023-03-22T00:46:48.464Z,7.93
2023-03-22T00:49:15.530Z,7.95
2023-03-22T00:51:42.592Z,7.98
2023-03-22T00:54:09.726Z,7.93
2023-03-22T00:56:37.779Z,7.94
2023-03-22T00:59:13.969Z,7.92
2023-03-22T01:01:43.111Z,7.94
2023-03-22T01:04:15.469Z,7.93
2023-03-22T01:06:42.418Z,7.89
2023-03-22T01:09:15.003Z,7.93
2023-03-22T01:11:44.141Z,7.92
2023-03-22T01:14:14.121Z,7.92
2023-03-22T01:16:41.305Z,7.92
2023-03-22T01:19:08.963Z,7.92
2023-03-22T01:21:35.996Z,7.90
2023-03-22T01:24:03.454Z,7.80
2023-03-22T01:26:30.695Z,7.84
2023-03-22T01:28:57.842Z,7.83
2023-03-22T01:31:25.025Z,7.81
2023-03-22T01:33:52.168Z,7.83
2023-03-22T01:36:21.217Z,7.82
2023-03-22T01:38:48.273Z,7.81
2023-03-22T01:41:17.121Z,7.81
2023-03-22T01:43:44.815Z,7.83
2023-03-22T01:46:12.413Z,7.80
2023-03-22T01:48:46.120Z,7.81
2023-03-22T01:51:18.700Z,7.85
2023-03-22T01:54:32.078Z,7.84
2023-03-22T01:57:03.774Z,7.85
2023-03-22T01:59:40.207Z,7.85
2023-03-22T02:02:19.387Z,7.83
2023-03-22T02:04:58.272Z,7.81
2023-03-22T02:07:28.764Z,7.84
2023-03-22T02:09:57.015Z,7.86
2023-03-22T02:12:40.901Z,7.87
2023-03-22T02:15:32.669Z,7.84
2023-03-22T02:18:39.163Z,7.87
2023-03-22T02:21:44.993Z,7.83
2023-03-22T02:24:30.475Z,7.90
2023-03-22T02:27:26.648Z,7.92
2023-03-22T02:30:28.447Z,7.89
2023-03-22T02:33:17.574Z,7.94
2023-03-22T02:36:11.366Z,7.96
2023-03-22T02:39:05.707Z,7.96
2023-03-22T02:42:00.437Z,7.95
2023-03-22T02:45:04.125Z,7.95
2023-03-22T02:47:55.331Z,7.95
2023-03-22T02:50:29.872Z,7.93
2023-03-22T02:53:29.054Z,7.95
2023-03-22T02:56:09.848Z,7.98
2023-03-22T02:58:50.527Z,7.97
2023-03-22T03:01:27.456Z,7.97
2023-03-22T03:03:59.406Z,8.00
2023-03-22T03:06:32.504Z,7.98
2023-03-22T03:09:02.803Z,8.02
2023-03-22T03:11:31.538Z,8.00
2023-03-22T03:13:59.685Z,7.96
2023-03-22T03:16:31.072Z,8.05
2023-03-22T03:19:11.745Z,8.05
2023-03-22T03:21:45.554Z,8.08
2023-03-22T03:24:23.403Z,8.09
2023-03-22T03:27:13.532Z,8.11
2023-03-22T03:29:50.848Z,8.12
2023-03-22T03:32:25.783Z,8.09
2023-03-22T03:35:07.830Z,8.10
2023-03-22T03:37:39.925Z,8.07
2023-03-22T03:40:13.015Z,8.09
2023-03-22T03:42:46.739Z,8.05
2023-03-22T03:45:15.558Z,8.07
2023-03-22T03:47:44.844Z,8.03
2023-03-22T03:50:15.948Z,8.04
2023-03-22T03:52:43.399Z,8.05
2023-03-22T03:55:10.937Z,8.00
2023-03-22T03:57:37.947Z,8.04
2023-03-22T04:00:06.009Z,8.04
2023-03-22T04:03:02.649Z,8.03
2023-03-22T04:05:50.700Z,7.98
2023-03-22T04:08:17.842Z,7.99
2023-03-22T04:10:50.873Z,8.03
2023-03-22T04:13:21.762Z,8.02
2023-03-22T04:15:53.758Z,8.03
2023-03-22T04:18:21.432Z,8.03
2023-03-22T04:20:49.615Z,8.04
2023-03-22T04:23:17.270Z,8.06
2023-03-22T04:25:50.368Z,8.07
2023-03-22T04:28:24.182Z,8.08
2023-03-22T04:30:52.556Z,8.08
2023-03-22T04:33:39.596Z,8.08
2023-03-22T04:36:36.625Z,8.09
2023-03-22T04:39:19.300Z,8.09
2023-03-22T04:41:55.332Z,8.09
2023-03-22T04:44:22.915Z,8.09
2023-03-22T04:46:51.110Z,8.10
2023-03-22T04:49:18.334Z,8.09
2023-03-22T04:51:45.699Z,8.09
2023-03-22T04:54:25.956Z,8.07
2023-03-22T04:56:53.087Z,8.09
2023-03-22T04:59:22.632Z,8.10
2023-03-22T05:01:51.763Z,8.10
2023-03-22T05:04:22.689Z,8.10
2023-03-22T05:06:55.462Z,8.08
2023-03-22T05:09:28.350Z,8.10
2023-03-22T05:11:56.004Z,8.08
2023-03-22T05:14:37.636Z,8.11
2023-03-22T05:17:06.062Z,8.12
2023-03-22T05:19:36.636Z,8.12
2023-03-22T05:22:03.745Z,8.14
2023-03-22T05:24:46.407Z,8.09
2023-03-22T05:27:31.826Z,8.16
2023-03-22T05:30:17.797Z,8.18
2023-03-22T05:32:59.928Z,8.15
2023-03-22T05:35:27.721Z,8.19
2023-03-22T05:37:57.252Z,8.21
2023-03-22T05:40:27.645Z,8.20
2023-03-22T05:42:55.376Z,8.20
2023-03-22T05:45:26.282Z,8.25
2023-03-22T05:48:16.384Z,8.21
2023-03-22T05:50:43.617Z,8.27
2023-03-22T05:53:11.798Z,8.27
2023-03-22T05:56:05.470Z,8.15
2023-03-22T05:58:34.079Z,8.18
2023-03-22T06:01:08.560Z,8.21
2023-03-22T06:03:48.655Z,8.18
2023-03-22T06:06:28.264Z,8.22
2023-03-22T06:09:16.459Z,8.23
2023-03-22T06:11:45.768Z,8.25
2023-03-22T06:14:14.903Z,8.30
2023-03-22T06:17:05.313Z,8.32
2023-03-22T06:19:32.537Z,8.33
2023-03-22T06:22:02.610Z,8.37
2023-03-22T06:24:31.405Z,8.35
2023-03-22T06:26:58.498Z,8.37
2023-03-22T06:29:25.690Z,8.39
2023-03-22T06:31:54.873Z,8.43
2023-03-22T06:34:21.871Z,8.46
2023-03-22T06:36:49.049Z,8.48
2023-03-22T06:39:23.937Z,8.48
2023-03-22T06:41:51.388Z,8.49
2023-03-22T06:44:18.777Z,8.51
2023-03-22T06:46:52.199Z,8.50
2023-03-22T06:49:37.214Z,8.55
2023-03-22T06:52:04.530Z,8.57
2023-03-22T06:54:32.465Z,8.58
2023-03-22T06:56:59.539Z,8.59
2023-03-22T06:59:26.858Z,8.60
2023-03-22T07:01:53.898Z,8.63
2023-03-22T07:04:21.346Z,8.63
2023-03-22T07:06:50.105Z,8.64
2023-03-22T07:09:17.866Z,8.67
2023-03-22T07:11:47.249Z,8.67
2023-03-22T07:14:18.187Z,8.71
2023-03-22T07:17:08.516Z,8.74
2023-03-22T07:19:35.766Z,8.76
2023-03-22T07:22:07.136Z,8.76
2023-03-22T07:24:38.655Z,8.81
2023-03-22T07:27:09.439Z,8.85
2023-03-22T07:29:36.598Z,8.90
2023-03-22T07:32:03.696Z,8.90
2023-03-22T07:34:44.167Z,8.91
2023-03-22T07:37:16.532Z,8.90
2023-03-22T07:39:43.827Z,8.87
2023-03-22T07:42:10.903Z,8.88
2023-03-22T07:45:07.513Z,8.95
2023-03-22T07:47:43.371Z,9.03
2023-03-22T07:50:33.419Z,9.02
2023-03-22T07:53:04.482Z,9.09
2023-03-22T07:55:31.875Z,9.02
2023-03-22T07:57:59.080Z,9.09
2023-03-22T08:00:26.360Z,9.12
2023-03-22T08:03:16.232Z,9.10
2023-03-22T08:06:04.481Z,9.18
2023-03-22T08:08:31.552Z,9.19
2023-03-22T08:10:59.152Z,9.28
2023-03-22T08:13:26.982Z,9.35
2023-03-22T08:15:54.385Z,9.39
2023-03-22T08:18:21.879Z,9.40
2023-03-22T08:20:56.906Z,9.43
2023-03-22T08:23:40.384Z,9.43
2023-03-22T08:26:27.521Z,9.37
2023-03-22T08:28:57.414Z,9.40
2023-03-22T08:31:24.496Z,9.40
2023-03-22T08:33:51.626Z,9.39
2023-03-22T08:36:21.793Z,9.39
2023-03-22T08:38:58.845Z,9.43
2023-03-22T08:41:38.793Z,9.47
2023-03-22T08:44:06.624Z,9.57
2023-03-22T08:46:35.416Z,9.59
2023-03-22T08:49:03.544Z,9.66
2023-03-22T08:51:41.688Z,9.73
2023-03-22T08:54:36.680Z,9.80
2023-03-22T08:57:04.388Z,9.77
2023-03-22T08:59:52.576Z,9.88
2023-03-22T09:02:36.410Z,9.87
2023-03-22T09:05:04.090Z,10.06
2023-03-22T09:07:31.913Z,10.14
2023-03-22T09:10:06.581Z,10.25
2023-03-22T09:12:37.350Z,10.28
2023-03-22T09:15:06.392Z,10.28
2023-03-22T09:17:34.719Z,10.23
2023-03-22T09:20:12.549Z,10.20
2023-03-22T09:22:42.755Z,10.27
2023-03-22T09:25:12.988Z,10.40
2023-03-22T09:27:43.040Z,10.56
2023-03-22T09:30:11.377Z,10.75
2023-03-22T09:32:40.876Z,10.83
2023-03-22T09:35:10.162Z,10.83
2023-03-22T09:37:49.622Z,10.83
2023-03-22T09:40:17.839Z,10.85
2023-03-22T09:42:55.293Z,10.82
2023-03-22T09:45:32.366Z,10.89
2023-03-22T09:48:00.292Z,10.93
2023-03-22T09:50:31.372Z,10.95
2023-03-22T09:52:59.489Z,10.91
2023-03-22T09:55:37.784Z,11.11
2023-03-22T09:58:13.703Z,11.14
2023-03-22T10:00:46.160Z,11.20
2023-03-22T10:03:34.710Z,11.35
2023-03-22T10:06:18.492Z,11.51
2023-03-22T10:08:54.500Z,11.72
2023-03-22T10:11:26.216Z,11.91
2023-03-22T10:13:57.777Z,12.08
2023-03-22T10:16:29.780Z,12.11
2023-03-22T10:19:21.736Z,12.17
2023-03-22T10:21:52.129Z,12.18
2023-03-22T10:24:22.996Z,12.15
2023-03-22T10:26:51.509Z,12.13
2023-03-22T10:29:27.568Z,12.14
2023-03-22T10:31:55.158Z,12.13
2023-03-22T10:34:28.193Z,12.15
2023-03-22T10:36:55.977Z,12.19
2023-03-22T10:39:38.562Z,12.19
2023-03-22T10:42:16.157Z,12.26
2023-03-22T10:44:58.074Z,12.29
2023-03-22T10:47:35.634Z,12.31
2023-03-22T10:50:07.441Z,12.33
2023-03-22T10:52:51.601Z,12.35
2023-03-22T10:55:18.847Z,12.46
2023-03-22T10:57:57.010Z,12.53
2023-03-22T11:00:25.667Z,12.53
2023-03-22T11:02:58.734Z,12.53
2023-03-22T11:05:30.297Z,12.52
2023-03-22T11:07:59.041Z,12.49
2023-03-22T11:10:34.848Z,12.54
2023-03-22T11:13:08.002Z,12.55
2023-03-22T11:15:54.717Z,12.57
2023-03-22T11:18:22.399Z,12.64
2023-03-22T11:20:57.335Z,12.61
2023-03-22T11:23:25.630Z,12.68
2023-03-22T11:25:56.689Z,12.62
2023-03-22T11:28:34.376Z,12.71
2023-03-22T11:31:08.666Z,12.69
2023-03-22T11:33:37.069Z,12.70
2023-03-22T11:36:16.408Z,12.71
2023-03-22T11:38:45.578Z,12.70
2023-03-22T11:41:22.972Z,12.75
2023-03-22T11:44:01.957Z,12.78
2023-03-22T11:46:30.556Z,12.83
2023-03-22T11:49:02.053Z,12.86
2023-03-22T11:51:33.679Z,12.89
2023-03-22T11:54:03.774Z,12.92
2023-03-22T11:56:31.273Z,12.97
2023-03-22T11:59:00.269Z,13.02
2023-03-22T12:01:43.500Z,13.02
2023-03-22T12:04:17.812Z,13.06
2023-03-22T12:06:45.203Z,13.03
2023-03-22T12:09:30.534Z,13.11
2023-03-22T12:12:01.128Z,13.13
2023-03-22T12:14:39.698Z,13.23
2023-03-22T12:17:14.658Z,13.27
2023-03-22T12:20:09.316Z,13.30
2023-03-22T12:22:41.996Z,13.36
2023-03-22T12:25:17.888Z,13.38
2023-03-22T12:27:48.691Z,13.39
2023-03-22T12:30:21.221Z,13.38
2023-03-22T12:32:59.690Z,13.37
2023-03-22T12:35:31.672Z,13.34
2023-03-22T12:38:01.862Z,13.34
2023-03-22T12:40:34.881Z,13.34
2023-03-22T12:43:01.883Z,13.42
2023-03-22T12:45:32.020Z,13.41
2023-03-22T12:48:07.246Z,13.33
2023-03-22T12:50:46.167Z,13.38
2023-03-22T12:53:19.274Z,13.37
2023-03-22T12:55:48.460Z,13.34
2023-03-22T12:58:23.988Z,13.30
2023-03-22T13:00:58.959Z,13.26
2023-03-22T13:03:29.072Z,13.26
2023-03-22T13:06:03.733Z,13.25
2023-03-22T13:09:09.339Z,13.16
2023-03-22T13:11:36.731Z,13.19
2023-03-22T13:14:03.892Z,13.19
2023-03-22T13:17:07.003Z,13.20
2023-03-22T13:19:37.714Z,13.23
2023-03-22T13:22:28.556Z,13.25
2023-03-22T13:25:29.306Z,13.28
2023-03-22T13:28:03.661Z,13.30
2023-03-22T13:30:35.647Z,13.30
2023-03-22T13:33:08.810Z,13.33
2023-03-22T13:35:57.998Z,13.34
2023-03-22T13:38:38.763Z,13.34
2023-03-22T13:41:20.839Z,13.32
2023-03-22T13:44:26.517Z,13.35
2023-03-22T13:46:58.406Z,13.21
2023-03-22T13:49:31.434Z,13.30
2023-03-22T13:52:02.262Z,13.22
2023-03-22T13:54:43.207Z,13.23
2023-03-22T13:57:37.900Z,13.28
2023-03-22T14:00:32.867Z,13.34
2023-03-22T14:03:18.350Z,13.29
2023-03-22T14:05:47.507Z,13.35
2023-03-22T14:08:28.617Z,13.30
2023-03-22T14:11:02.288Z,13.29
2023-03-22T14:13:35.195Z,13.29
2023-03-22T14:16:15.770Z,13.28
2023-03-22T14:18:44.456Z,13.25
2023-03-22T14:21:19.185Z,13.28
